East Gull Lake, Minnesota
Current Conditions -  °F | °C
As of 7:53 AM on Monday 20 Oct 2014 (Local Time) from KBRD Reporting Station
Clear Clear  
Wind Chill: 38°   Ceiling: Unl
Heat Index: 41°   Visibility: 10mi
Dew Point: 39°   Wind: 5mph
Humidity: 93%   Direction: 320°NW
Pressure: 29.99"   Gusts: NA
Location:  46.2895°N, 94.0683°W
Report Text: KBRD 201253Z AUTO 32004KT 10SM CLR 05/04 A2999 RMK AO2 SLP161 T00500039
Loading
Personal Weather Stations






























Interactive Weather Map
Tropical Storm Tracking
New forecast layout! Learn more

10-Day Weather Forecast

Advertisements
Track Severe Weather on mobile